Time;durP1;ratioP1;P1;durP2;ratioP2;P2;SDS_P1;SDS_P2;PMS_P1;PMS_P2;Temp;Humidity;BMP_temperature;BMP_pressure;BME280_temperature;BME280_humidity;BME280_pressure;Samples;Min_cycle;Max_cycle;Signal;HPM_P1;HPM_P2
2024/04/05 00:01:31;;;;;;;4.85;1.40;;;;;;;;;;5020849;28;20057;-69
2024/04/05 00:03:57;;;;;;;6.22;1.40;;;;;;;;;;5018800;28;20036;-70
2024/04/05 00:06:24;;;;;;;3.53;1.35;;;;;;;;;;5010774;28;20044;-69
2024/04/05 00:08:50;;;;;;;1.92;1.10;;;;;;;;;;5018036;28;20046;-69
2024/04/05 00:11:16;;;;;;;3.10;2.03;;;;;;;;;;5013781;28;20025;-69
2024/04/05 00:13:43;;;;;;;5.35;1.80;;;;;;;;;;5016373;28;20049;-68
2024/04/05 00:16:09;;;;;;;3.72;1.50;;;;;;;;;;5018829;28;20056;-68
2024/04/05 00:18:36;;;;;;;2.63;1.35;;;;;;;;;;5012677;28;20045;-69
2024/04/05 00:21:03;;;;;;;5.22;1.50;;;;;;;;;;5011661;28;20042;-68
2024/04/05 00:23:31;;;;;;;4.72;1.60;;;;;;;;;;5019192;28;20021;-69
2024/04/05 00:26:05;;;;;;;2.08;1.13;;;;;;;;;;5009597;28;20029;-69
2024/04/05 00:28:33;;;;;;;3.03;1.33;;;;;;;;;;5009373;28;20048;-69
2024/04/05 00:30:59;;;;;;;2.20;1.20;;;;;;;;;;5007751;28;20049;-69
2024/04/05 00:33:25;;;;;;;4.43;1.63;;;;;;;;;;5010662;28;20025;-69
2024/04/05 00:35:53;;;;;;;2.78;1.48;;;;;;;;;;5012416;28;20030;-68
2024/04/05 00:38:19;;;;;;;5.60;1.40;;;;;;;;;;5011642;28;20050;-68
2024/04/05 00:40:46;;;;;;;3.72;1.25;;;;;;;;;;5010971;28;20045;-68
2024/04/05 00:43:13;;;;;;;2.80;1.60;;;;;;;;;;5015167;28;20053;-69
2024/04/05 00:45:40;;;;;;;7.78;1.40;;;;;;;;;;5010761;28;20030;-69
2024/04/05 00:48:07;;;;;;;3.67;1.45;;;;;;;;;;5013370;28;20424;-69
2024/04/05 00:50:35;;;;;;;3.53;1.42;;;;;;;;;;5012356;28;20046;-69
2024/04/05 00:53:02;;;;;;;7.63;1.50;;;;;;;;;;5014566;28;20041;-69
2024/04/05 00:55:30;;;;;;;2.33;1.08;;;;;;;;;;5015030;28;20513;-69
2024/04/05 00:58:01;;;;;;;4.88;1.40;;;;;;;;;;4974865;28;20034;-69
2024/04/05 01:00:31;;;;;;;2.88;1.23;;;;;;;;;;5017484;28;20384;-69
2024/04/05 01:02:58;;;;;;;4.10;1.10;;;;;;;;;;5010208;28;20049;-69
2024/04/05 01:05:24;;;;;;;4.20;1.30;;;;;;;;;;5011776;28;20050;-68
2024/04/05 01:07:52;;;;;;;3.90;1.42;;;;;;;;;;5014945;28;20516;-67
2024/04/05 01:10:20;;;;;;;4.75;1.30;;;;;;;;;;5010873;28;20049;-67
2024/04/05 01:13:01;;;;;;;2.40;1.40;;;;;;;;;;5007298;28;20524;-67
2024/04/05 01:15:27;;;;;;;2.60;1.17;;;;;;;;;;5017526;28;20037;-68
2024/04/05 01:17:53;;;;;;;5.20;1.75;;;;;;;;;;5012481;28;20073;-68
2024/04/05 01:20:23;;;;;;;3.30;1.50;;;;;;;;;;5013158;28;20489;-67
2024/04/05 01:22:53;;;;;;;5.10;1.50;;;;;;;;;;5016059;28;20040;-67
2024/04/05 01:25:23;;;;;;;3.50;1.27;;;;;;;;;;5015081;28;20065;-67
2024/04/05 01:27:49;;;;;;;4.32;1.70;;;;;;;;;;5011444;28;20053;-67
2024/04/05 01:30:15;;;;;;;7.20;1.27;;;;;;;;;;5012518;28;20069;-68
2024/04/05 01:33:08;;;;;;;5.05;1.50;;;;;;;;;;5010892;28;20404;-67
2024/04/05 01:35:34;;;;;;;4.32;1.63;;;;;;;;;;5004224;28;20046;-68
2024/04/05 01:38:00;;;;;;;3.22;1.52;;;;;;;;;;5011139;28;20048;-68
2024/04/05 01:40:26;;;;;;;2.92;1.52;;;;;;;;;;5008925;28;20040;-68
2024/04/05 01:42:53;;;;;;;5.07;1.58;;;;;;;;;;5010136;28;20412;-68
2024/04/05 01:45:19;;;;;;;3.58;1.60;;;;;;;;;;5011267;28;20045;-68
2024/04/05 01:47:46;;;;;;;3.47;1.60;;;;;;;;;;5012160;28;20049;-68
2024/04/05 01:50:14;;;;;;;3.95;1.92;;;;;;;;;;5013705;28;20400;-68
2024/04/05 01:52:40;;;;;;;3.60;1.92;;;;;;;;;;5010624;28;20484;-68
2024/04/05 01:55:06;;;;;;;2.83;1.52;;;;;;;;;;5011597;28;20061;-68
2024/04/05 01:57:36;;;;;;;5.82;2.00;;;;;;;;;;5011608;28;20046;-68
2024/04/05 02:00:03;;;;;;;3.50;1.48;;;;;;;;;;5012548;28;20034;-68
2024/04/05 02:02:39;;;;;;;6.88;2.08;;;;;;;;;;5018543;28;20034;-68
2024/04/05 02:05:06;;;;;;;3.53;1.70;;;;;;;;;;5009077;28;20042;-68
2024/04/05 02:07:32;;;;;;;5.95;1.63;;;;;;;;;;5013297;28;20038;-69
2024/04/05 02:09:58;;;;;;;4.72;1.77;;;;;;;;;;5017631;28;20041;-68
2024/04/05 02:12:31;;;;;;;5.97;1.77;;;;;;;;;;4997932;28;20038;-69
2024/04/05 02:14:57;;;;;;;4.85;2.08;;;;;;;;;;5011115;28;20048;-69
2024/04/05 02:17:24;;;;;;;4.93;1.42;;;;;;;;;;5009681;28;20045;-68
2024/04/05 02:19:54;;;;;;;3.40;1.38;;;;;;;;;;5018605;28;20032;-66
2024/04/05 02:22:20;;;;;;;2.28;1.63;;;;;;;;;;5009118;28;20587;-69
2024/04/05 02:24:49;;;;;;;5.05;1.60;;;;;;;;;;5010609;28;20030;-68
2024/04/05 02:27:18;;;;;;;3.60;1.80;;;;;;;;;;5010066;28;20037;-68
2024/04/05 02:29:44;;;;;;;4.93;1.60;;;;;;;;;;5004805;28;20041;-68
2024/04/05 02:32:10;;;;;;;4.15;1.65;;;;;;;;;;5010134;28;20042;-68
2024/04/05 02:34:36;;;;;;;1.58;1.38;;;;;;;;;;5009839;28;20073;-69
2024/04/05 02:37:03;;;;;;;3.95;1.80;;;;;;;;;;5009877;28;20042;-69
2024/04/05 02:39:30;;;;;;;3.55;1.50;;;;;;;;;;5009718;28;20504;-68
2024/04/05 02:41:56;;;;;;;4.13;1.60;;;;;;;;;;5011320;28;20045;-70
2024/04/05 02:44:25;;;;;;;5.07;1.70;;;;;;;;;;5011629;28;20040;-68
2024/04/05 02:46:52;;;;;;;3.43;1.77;;;;;;;;;;5012302;28;20038;-68
2024/04/05 02:49:18;;;;;;;4.13;1.45;;;;;;;;;;5012885;28;20311;-69
2024/04/05 02:51:44;;;;;;;10.02;2.28;;;;;;;;;;5009910;28;20493;-68
2024/04/05 02:54:10;;;;;;;6.63;1.65;;;;;;;;;;5013121;28;20052;-68
2024/04/05 02:56:36;;;;;;;4.55;1.58;;;;;;;;;;5013967;28;20053;-68
2024/04/05 02:59:02;;;;;;;3.22;1.50;;;;;;;;;;5010115;28;20053;-67
2024/04/05 03:01:28;;;;;;;4.85;2.13;;;;;;;;;;5011851;28;20040;-67
2024/04/05 03:03:54;;;;;;;4.13;1.83;;;;;;;;;;5010800;28;20053;-66
2024/04/05 03:06:21;;;;;;;2.70;1.42;;;;;;;;;;5013152;28;20061;-68
2024/04/05 03:08:47;;;;;;;3.25;2.03;;;;;;;;;;5016331;28;20060;-67
2024/04/05 03:11:13;;;;;;;3.42;1.90;;;;;;;;;;5013717;28;20045;-67
2024/04/05 03:13:40;;;;;;;4.25;1.65;;;;;;;;;;5012115;28;20044;-67
2024/04/05 03:16:07;;;;;;;7.25;1.83;;;;;;;;;;5012309;28;20397;-68
2024/04/05 03:18:33;;;;;;;4.55;1.60;;;;;;;;;;5014850;28;20041;-67
2024/04/05 03:20:59;;;;;;;6.22;1.55;;;;;;;;;;5019452;28;20033;-66
2024/04/05 03:23:25;;;;;;;5.47;1.77;;;;;;;;;;5009016;28;20038;-67
2024/04/05 03:25:51;;;;;;;3.67;1.55;;;;;;;;;;5010852;28;20045;-68
2024/04/05 03:28:18;;;;;;;5.93;1.60;;;;;;;;;;5009753;28;20069;-69
2024/04/05 03:30:44;;;;;;;2.38;1.70;;;;;;;;;;5007991;28;20045;-68
2024/04/05 03:33:10;;;;;;;2.78;1.58;;;;;;;;;;5006616;28;20057;-68
2024/04/05 03:35:37;;;;;;;3.45;1.65;;;;;;;;;;5007852;28;20033;-69
2024/04/05 03:38:04;;;;;;;3.80;1.60;;;;;;;;;;5010065;28;20048;-69
2024/04/05 03:40:30;;;;;;;4.15;1.60;;;;;;;;;;5007432;28;20049;-69
2024/04/05 03:42:56;;;;;;;4.00;1.65;;;;;;;;;;5003381;28;20054;-69
2024/04/05 03:45:22;;;;;;;3.72;1.48;;;;;;;;;;5009463;28;20513;-69
2024/04/05 03:47:48;;;;;;;4.30;1.42;;;;;;;;;;5016035;28;20073;-68
2024/04/05 03:50:14;;;;;;;5.93;2.30;;;;;;;;;;5012241;28;20041;-69
2024/04/05 03:52:41;;;;;;;4.85;2.75;;;;;;;;;;5013245;28;20037;-67
2024/04/05 03:55:07;;;;;;;3.72;1.70;;;;;;;;;;5016382;28;20038;-69
2024/04/05 03:57:33;;;;;;;2.60;1.35;;;;;;;;;;5017325;28;20049;-68
2024/04/05 03:59:59;;;;;;;3.38;1.60;;;;;;;;;;5016698;28;20041;-67
2024/04/05 04:02:25;;;;;;;4.93;2.35;;;;;;;;;;5020152;28;20034;-68
2024/04/05 04:04:51;;;;;;;5.53;1.90;;;;;;;;;;5012961;28;20038;-67
2024/04/05 04:07:17;;;;;;;2.00;1.33;;;;;;;;;;5012868;28;20038;-67
2024/04/05 04:09:46;;;;;;;3.83;1.63;;;;;;;;;;5013485;28;20036;-68
2024/04/05 04:12:13;;;;;;;2.95;1.48;;;;;;;;;;5013999;28;20041;-67
2024/04/05 04:14:41;;;;;;;5.72;1.50;;;;;;;;;;5012711;28;20052;-68
2024/04/05 04:17:07;;;;;;;4.93;1.50;;;;;;;;;;5016207;28;20046;-68
2024/04/05 04:19:33;;;;;;;2.92;1.10;;;;;;;;;;5010721;28;20041;-69
2024/04/05 04:21:59;;;;;;;3.83;2.00;;;;;;;;;;5010491;28;20082;-69
2024/04/05 04:24:25;;;;;;;5.05;1.98;;;;;;;;;;5011300;28;20037;-68
2024/04/05 04:26:51;;;;;;;3.65;1.40;;;;;;;;;;4996013;28;20069;-69
2024/04/05 04:29:17;;;;;;;3.67;1.50;;;;;;;;;;5012506;28;20053;-68
2024/04/05 04:31:45;;;;;;;4.68;1.33;;;;;;;;;;5012080;28;20508;-68
2024/04/05 04:34:11;;;;;;;3.20;1.60;;;;;;;;;;5012815;28;20493;-68
2024/04/05 04:36:37;;;;;;;4.90;1.65;;;;;;;;;;5012068;28;20033;-67
2024/04/05 04:39:08;;;;;;;4.63;1.77;;;;;;;;;;5016321;28;20045;-68
2024/04/05 04:41:35;;;;;;;4.05;1.73;;;;;;;;;;5013903;28;20135;-68
2024/04/05 04:44:02;;;;;;;5.00;2.17;;;;;;;;;;5012119;28;20046;-68
2024/04/05 04:46:28;;;;;;;7.28;2.67;;;;;;;;;;5017744;28;20039;-67
2024/04/05 04:48:56;;;;;;;4.85;2.00;;;;;;;;;;5014330;28;20045;-68
2024/04/05 04:51:22;;;;;;;3.42;2.13;;;;;;;;;;5007081;28;20046;-68
2024/04/05 04:53:48;;;;;;;3.70;1.90;;;;;;;;;;5010954;28;20029;-68
2024/04/05 04:56:16;;;;;;;6.40;2.67;;;;;;;;;;5014939;28;20412;-68
2024/04/05 04:58:43;;;;;;;5.78;1.90;;;;;;;;;;5009869;28;20048;-69
2024/04/05 05:01:10;;;;;;;3.40;2.03;;;;;;;;;;5013879;28;20076;-68
2024/04/05 05:03:36;;;;;;;5.55;1.77;;;;;;;;;;5010265;28;20034;-68
2024/04/05 05:06:02;;;;;;;4.20;1.70;;;;;;;;;;5014278;28;20049;-68
2024/04/05 05:08:29;;;;;;;3.20;1.70;;;;;;;;;;5017654;28;20385;-63
2024/04/05 05:10:55;;;;;;;5.00;1.65;;;;;;;;;;5011262;28;20501;-65
2024/04/05 05:13:22;;;;;;;3.70;1.50;;;;;;;;;;5012915;28;20026;-64
2024/04/05 05:15:48;;;;;;;2.67;1.42;;;;;;;;;;5013589;28;20034;-63
2024/04/05 05:18:14;;;;;;;3.63;1.60;;;;;;;;;;5011356;28;20042;-64
2024/04/05 05:20:47;;;;;;;3.72;1.98;;;;;;;;;;5010773;28;20053;-64
2024/04/05 05:23:14;;;;;;;2.80;1.45;;;;;;;;;;5011997;28;20037;-63
2024/04/05 05:25:43;;;;;;;5.13;1.60;;;;;;;;;;5012285;28;20030;-65
2024/04/05 05:28:09;;;;;;;3.08;1.58;;;;;;;;;;5011535;28;20052;-64
2024/04/05 05:30:38;;;;;;;1.48;1.38;;;;;;;;;;5015794;28;20049;-65
2024/04/05 05:33:05;;;;;;;3.17;1.40;;;;;;;;;;5006662;28;20037;-63
2024/04/05 05:35:32;;;;;;;5.43;1.30;;;;;;;;;;5008787;28;20045;-65
2024/04/05 05:37:58;;;;;;;3.70;1.23;;;;;;;;;;5013319;28;20396;-63
2024/04/05 05:40:26;;;;;;;2.60;1.70;;;;;;;;;;5009310;28;20036;-63
2024/04/05 05:42:52;;;;;;;2.55;1.38;;;;;;;;;;5012216;28;20046;-63
2024/04/05 05:45:21;;;;;;;2.55;1.67;;;;;;;;;;5013380;28;20040;-63
2024/04/05 05:47:52;;;;;;;3.38;1.70;;;;;;;;;;5012895;28;20052;-63
2024/04/05 05:50:19;;;;;;;2.45;1.70;;;;;;;;;;5009729;28;20502;-63
2024/04/05 05:52:46;;;;;;;3.20;1.60;;;;;;;;;;5012605;28;20041;-64
2024/04/05 05:55:12;;;;;;;4.72;1.95;;;;;;;;;;5018384;28;20056;-63
2024/04/05 05:57:38;;;;;;;5.28;1.48;;;;;;;;;;5014942;28;20038;-64
2024/04/05 06:00:09;;;;;;;3.03;1.50;;;;;;;;;;5015513;28;20052;-63
2024/04/05 06:02:37;;;;;;;2.22;1.48;;;;;;;;;;5009731;28;20133;-64
2024/04/05 06:05:09;;;;;;;3.67;1.60;;;;;;;;;;5009228;28;20041;-63
2024/04/05 06:07:35;;;;;;;5.18;1.60;;;;;;;;;;5012927;28;20404;-64
2024/04/05 06:10:02;;;;;;;3.53;1.85;;;;;;;;;;5011934;28;20416;-65
2024/04/05 06:12:29;;;;;;;3.47;1.60;;;;;;;;;;5010750;28;20053;-63
2024/04/05 06:14:56;;;;;;;3.03;1.45;;;;;;;;;;5012191;28;20416;-64
2024/04/05 06:17:26;;;;;;;6.13;1.55;;;;;;;;;;5014342;28;20049;-64
2024/04/05 06:19:56;;;;;;;3.80;1.50;;;;;;;;;;5010631;28;20033;-64
2024/04/05 06:22:25;;;;;;;2.92;1.90;;;;;;;;;;5009858;28;20049;-63
2024/04/05 06:24:52;;;;;;;3.55;1.25;;;;;;;;;;5010727;28;20047;-64
2024/04/05 06:27:19;;;;;;;4.97;1.80;;;;;;;;;;5010408;28;20048;-64
2024/04/05 06:29:55;;;;;;;4.90;1.98;;;;;;;;;;5010254;28;20038;-64
2024/04/05 06:32:22;;;;;;;2.35;1.70;;;;;;;;;;5010352;28;20500;-64
2024/04/05 06:34:50;;;;;;;4.70;1.50;;;;;;;;;;5009367;28;20393;-64
2024/04/05 06:37:16;;;;;;;5.78;1.73;;;;;;;;;;5010674;28;20046;-64
2024/04/05 06:39:43;;;;;;;6.03;1.50;;;;;;;;;;5011681;28;20045;-64
2024/04/05 06:42:10;;;;;;;4.97;1.42;;;;;;;;;;5011272;28;20050;-64
2024/04/05 06:44:39;;;;;;;3.70;1.20;;;;;;;;;;5012377;28;20037;-66
2024/04/05 06:47:09;;;;;;;6.43;1.40;;;;;;;;;;5006593;28;20037;-64
2024/04/05 06:49:39;;;;;;;3.28;1.35;;;;;;;;;;5008218;28;20052;-63
2024/04/05 06:52:07;;;;;;;2.92;1.27;;;;;;;;;;5006689;28;20046;-63
2024/04/05 06:54:34;;;;;;;2.42;1.40;;;;;;;;;;5007232;28;20049;-63
2024/04/05 06:57:01;;;;;;;1.92;1.30;;;;;;;;;;5014869;28;20420;-63
2024/04/05 06:59:33;;;;;;;2.85;1.50;;;;;;;;;;5009982;28;20041;-64
2024/04/05 07:01:59;;;;;;;4.13;1.67;;;;;;;;;;5001096;28;20371;-64
2024/04/05 07:04:26;;;;;;;3.65;1.23;;;;;;;;;;5011379;28;20041;-63
2024/04/05 07:06:55;;;;;;;2.30;1.50;;;;;;;;;;5011110;28;21593;-63
2024/04/05 07:09:25;;;;;;;3.17;1.33;;;;;;;;;;5011447;28;20049;-62
2024/04/05 07:11:52;;;;;;;3.88;1.50;;;;;;;;;;5011872;28;20045;-65
2024/04/05 07:14:19;;;;;;;2.40;1.40;;;;;;;;;;5012221;28;20029;-62
2024/04/05 07:16:46;;;;;;;2.47;1.10;;;;;;;;;;5010641;28;20037;-63
2024/04/05 07:19:13;;;;;;;3.45;1.30;;;;;;;;;;5010531;28;20058;-63
2024/04/05 07:21:40;;;;;;;3.97;1.48;;;;;;;;;;5009205;28;20033;-62
2024/04/05 07:24:06;;;;;;;2.88;1.17;;;;;;;;;;5012232;28;20086;-62
2024/04/05 07:26:32;;;;;;;4.15;1.33;;;;;;;;;;5011584;28;20138;-63
2024/04/05 07:28:59;;;;;;;1.83;1.25;;;;;;;;;;5010238;28;20061;-63
2024/04/05 07:31:25;;;;;;;4.00;1.30;;;;;;;;;;5012463;28;20494;-63
2024/04/05 07:33:51;;;;;;;2.40;1.00;;;;;;;;;;5013830;28;20054;-62
2024/04/05 07:36:18;;;;;;;4.38;1.40;;;;;;;;;;5012744;28;20045;-63
2024/04/05 07:38:44;;;;;;;3.10;1.10;;;;;;;;;;5013684;28;20104;-65
2024/04/05 07:41:10;;;;;;;4.47;1.38;;;;;;;;;;5013455;28;20038;-63
2024/04/05 07:43:37;;;;;;;3.28;1.30;;;;;;;;;;5013608;28;20060;-64
2024/04/05 07:46:03;;;;;;;1.88;1.20;;;;;;;;;;5016103;28;20049;-63
2024/04/05 07:48:30;;;;;;;3.83;1.08;;;;;;;;;;5011744;28;20034;-63
2024/04/05 07:51:00;;;;;;;2.15;1.20;;;;;;;;;;5013418;28;20038;-64
2024/04/05 07:53:26;;;;;;;1.90;0.90;;;;;;;;;;5015238;28;20038;-62
2024/04/05 07:55:52;;;;;;;3.20;1.10;;;;;;;;;;5020061;28;20049;-64
2024/04/05 07:58:20;;;;;;;3.85;1.30;;;;;;;;;;5015011;28;20037;-63
2024/04/05 08:00:47;;;;;;;3.53;1.20;;;;;;;;;;5013058;28;20417;-65
2024/04/05 08:03:13;;;;;;;2.40;1.00;;;;;;;;;;5009491;28;20045;-63
2024/04/05 08:05:40;;;;;;;4.80;1.10;;;;;;;;;;5018473;28;20040;-63
2024/04/05 08:08:08;;;;;;;3.10;1.23;;;;;;;;;;5014388;28;20042;-65
2024/04/05 08:10:34;;;;;;;9.10;1.45;;;;;;;;;;5002298;28;20046;-63
2024/04/05 08:13:01;;;;;;;3.30;1.10;;;;;;;;;;5014602;28;20410;-63
2024/04/05 08:15:30;;;;;;;4.82;1.17;;;;;;;;;;5018624;28;20072;-63
2024/04/05 08:17:57;;;;;;;2.38;1.42;;;;;;;;;;5012302;28;20511;-62
2024/04/05 08:20:23;;;;;;;3.38;1.00;;;;;;;;;;5010139;28;20037;-64
2024/04/05 08:22:50;;;;;;;3.88;1.35;;;;;;;;;;5009595;28;20033;-64
2024/04/05 08:25:16;;;;;;;2.22;1.13;;;;;;;;;;5010291;28;20046;-65
2024/04/05 08:27:44;;;;;;;4.72;1.45;;;;;;;;;;5012487;28;20048;-63
2024/04/05 08:30:18;;;;;;;5.80;2.00;;;;;;;;;;5012521;28;20046;-68
2024/04/05 08:32:44;;;;;;;4.03;2.30;;;;;;;;;;5010187;28;20081;-67
2024/04/05 08:35:10;;;;;;;5.72;3.88;;;;;;;;;;5013547;28;20034;-67
2024/04/05 08:37:37;;;;;;;5.65;4.35;;;;;;;;;;5012915;28;20049;-68
2024/04/05 08:40:10;;;;;;;4.03;2.40;;;;;;;;;;5013334;28;20165;-68
2024/04/05 08:42:37;;;;;;;6.07;2.60;;;;;;;;;;5011986;28;20041;-68
2024/04/05 08:45:05;;;;;;;7.10;2.40;;;;;;;;;;5017094;28;20433;-68
2024/04/05 08:47:35;;;;;;;3.30;1.70;;;;;;;;;;5013069;28;20053;-68
2024/04/05 08:50:08;;;;;;;3.00;1.48;;;;;;;;;;5012541;28;20041;-67
2024/04/05 08:52:34;;;;;;;4.95;1.40;;;;;;;;;;5006911;28;20049;-67
2024/04/05 08:55:02;;;;;;;2.60;1.35;;;;;;;;;;5014222;28;20048;-66
2024/04/05 08:57:34;;;;;;;3.50;1.88;;;;;;;;;;5013563;28;20041;-67
2024/04/05 09:00:01;;;;;;;2.55;1.45;;;;;;;;;;5013222;28;20044;-67
2024/04/05 09:02:29;;;;;;;1.65;0.93;;;;;;;;;;5016907;28;20064;-70
2024/04/05 09:04:55;;;;;;;3.38;1.02;;;;;;;;;;5015538;28;20373;-68
2024/04/05 09:07:22;;;;;;;2.38;0.75;;;;;;;;;;5008128;28;20050;-68
2024/04/05 09:09:49;;;;;;;3.45;1.15;;;;;;;;;;5011239;28;20660;-67
2024/04/05 09:12:21;;;;;;;1.58;0.80;;;;;;;;;;5013109;28;20086;-69
2024/04/05 09:14:57;;;;;;;1.50;0.70;;;;;;;;;;5015287;28;20041;-69
2024/04/05 09:17:24;;;;;;;2.17;1.33;;;;;;;;;;5008156;28;20030;-69
2024/04/05 09:20:03;;;;;;;3.40;1.25;;;;;;;;;;5010279;28;20509;-70
2024/04/05 09:22:29;;;;;;;2.90;0.90;;;;;;;;;;5007116;28;20056;-70
2024/04/05 09:25:03;;;;;;;5.55;1.70;;;;;;;;;;5008134;28;20054;-69
2024/04/05 09:27:30;;;;;;;1.63;0.82;;;;;;;;;;5009746;28;20610;-69
2024/04/05 09:30:02;;;;;;;3.53;1.20;;;;;;;;;;5011248;28;20125;-68
2024/04/05 09:32:29;;;;;;;2.33;1.00;;;;;;;;;;5010775;28;20045;-68
2024/04/05 09:34:59;;;;;;;2.30;0.60;;;;;;;;;;5011725;28;20052;-69
2024/04/05 09:37:26;;;;;;;2.88;0.70;;;;;;;;;;5010475;28;20489;-69
2024/04/05 09:39:53;;;;;;;2.15;0.82;;;;;;;;;;5011342;28;20053;-68
2024/04/05 09:42:22;;;;;;;1.27;0.70;;;;;;;;;;5012744;28;20037;-69
2024/04/05 09:44:51;;;;;;;1.23;0.70;;;;;;;;;;5012663;28;20045;-70
2024/04/05 09:47:19;;;;;;;1.73;0.60;;;;;;;;;;5013048;28;20042;-69
2024/04/05 09:49:46;;;;;;;1.65;0.63;;;;;;;;;;5014522;28;20061;-67
2024/04/05 09:52:14;;;;;;;1.60;0.70;;;;;;;;;;5013084;28;20036;-68
2024/04/05 09:54:45;;;;;;;1.85;0.55;;;;;;;;;;5011126;28;20061;-69
2024/04/05 09:57:15;;;;;;;1.17;0.60;;;;;;;;;;5009363;28;20034;-68
2024/04/05 09:59:44;;;;;;;1.27;0.80;;;;;;;;;;5013461;28;20049;-68
2024/04/05 10:02:10;;;;;;;2.95;1.00;;;;;;;;;;5011758;28;20053;-67
2024/04/05 10:04:38;;;;;;;2.30;0.63;;;;;;;;;;5012429;28;20038;-68
2024/04/05 10:07:05;;;;;;;1.10;0.60;;;;;;;;;;5012147;28;20448;-68
2024/04/05 10:09:35;;;;;;;3.80;0.70;;;;;;;;;;5011823;28;20854;-67
2024/04/05 10:12:17;;;;;;;1.58;0.45;;;;;;;;;;5011383;28;20057;-68
2024/04/05 10:14:53;;;;;;;3.10;0.68;;;;;;;;;;5011961;28;20042;-68
2024/04/05 10:17:26;;;;;;;1.60;0.60;;;;;;;;;;5009085;28;20081;-69
2024/04/05 10:20:03;;;;;;;1.55;0.30;;;;;;;;;;5009763;28;20034;-67
2024/04/05 10:22:30;;;;;;;2.30;0.52;;;;;;;;;;5008837;28;20045;-67
2024/04/05 10:24:56;;;;;;;2.13;0.55;;;;;;;;;;5009048;28;20029;-69
2024/04/05 10:27:25;;;;;;;1.15;0.52;;;;;;;;;;5009147;28;20038;-69
2024/04/05 10:29:58;;;;;;;;;;;;;;;;;;5010679;28;20050;-67
2024/04/05 10:32:25;;;;;;;2.67;0.80;;;;;;;;;;5009508;28;19917;-69
2024/04/05 10:34:51;;;;;;;1.42;0.70;;;;;;;;;;5010151;28;20048;-66
2024/04/05 10:37:17;;;;;;;0.98;0.38;;;;;;;;;;5014223;28;20033;-68
2024/04/05 10:39:43;;;;;;;1.77;0.60;;;;;;;;;;5013020;28;20434;-65
2024/04/05 10:42:10;;;;;;;1.40;0.63;;;;;;;;;;5011887;28;20029;-65
2024/04/05 10:44:37;;;;;;;0.68;0.40;;;;;;;;;;5011122;28;20060;-64
2024/04/05 10:47:06;;;;;;;2.00;0.50;;;;;;;;;;5014688;28;20064;-64
2024/04/05 10:49:32;;;;;;;1.27;0.40;;;;;;;;;;5011467;28;20034;-61
2024/04/05 10:51:59;;;;;;;2.42;0.63;;;;;;;;;;5009577;28;20053;-63
2024/04/05 10:54:25;;;;;;;1.95;0.73;;;;;;;;;;5010224;28;20067;-62
2024/04/05 10:56:52;;;;;;;0.82;0.40;;;;;;;;;;5008899;28;20037;-63
2024/04/05 10:59:18;;;;;;;2.72;0.70;;;;;;;;;;5014319;28;20049;-63
2024/04/05 11:01:49;;;;;;;2.67;0.68;;;;;;;;;;5014742;28;20025;-63
2024/04/05 11:04:15;;;;;;;0.77;0.60;;;;;;;;;;5015090;28;20042;-63
2024/04/05 11:06:41;;;;;;;1.75;0.70;;;;;;;;;;5011897;28;20503;-63
2024/04/05 11:09:14;;;;;;;2.47;0.63;;;;;;;;;;5010799;28;20481;-64
2024/04/05 11:11:41;;;;;;;2.15;0.52;;;;;;;;;;5011043;28;20061;-64
2024/04/05 11:14:10;;;;;;;2.00;0.70;;;;;;;;;;5007740;28;20045;-63
2024/04/05 11:16:37;;;;;;;2.15;0.60;;;;;;;;;;5012425;28;20069;-63
2024/04/05 11:19:04;;;;;;;1.88;0.65;;;;;;;;;;4999619;28;20409;-63
2024/04/05 11:21:33;;;;;;;1.35;0.60;;;;;;;;;;5009036;28;20042;-63
2024/04/05 11:23:59;;;;;;;2.08;0.60;;;;;;;;;;5023106;28;20054;-65
2024/04/05 11:26:33;;;;;;;0.90;0.50;;;;;;;;;;5011617;28;20038;-64
2024/04/05 11:29:00;;;;;;;1.67;0.70;;;;;;;;;;5008410;28;20050;-63
2024/04/05 11:31:28;;;;;;;1.90;0.70;;;;;;;;;;5011066;28;20042;-63
2024/04/05 11:33:55;;;;;;;1.33;0.70;;;;;;;;;;5013167;28;20052;-63
2024/04/05 11:36:21;;;;;;;1.70;0.80;;;;;;;;;;5013927;28;20720;-64
2024/04/05 11:38:48;;;;;;;1.50;0.68;;;;;;;;;;5013668;28;20385;-63
2024/04/05 11:41:15;;;;;;;2.25;1.05;;;;;;;;;;5012130;28;20493;-64
2024/04/05 11:43:42;;;;;;;1.42;0.82;;;;;;;;;;5016040;28;20038;-63
2024/04/05 11:46:08;;;;;;;2.38;0.82;;;;;;;;;;5013451;28;20090;-64
2024/04/05 11:48:35;;;;;;;1.92;0.80;;;;;;;;;;5014168;28;20049;-63
2024/04/05 11:51:01;;;;;;;1.20;0.70;;;;;;;;;;5014028;28;20053;-64
2024/04/05 11:53:27;;;;;;;3.90;0.60;;;;;;;;;;5013770;28;20057;-64
2024/04/05 11:55:58;;;;;;;1.77;0.77;;;;;;;;;;5016033;28;20068;-64
2024/04/05 11:58:25;;;;;;;1.08;0.60;;;;;;;;;;5013005;28;20054;-64
2024/04/05 12:00:51;;;;;;;1.50;0.50;;;;;;;;;;5011424;28;20509;-64
2024/04/05 12:03:18;;;;;;;1.88;0.77;;;;;;;;;;5012586;28;20070;-63
2024/04/05 12:05:50;;;;;;;3.92;1.00;;;;;;;;;;5014222;28;20045;-64
2024/04/05 12:08:16;;;;;;;1.75;0.80;;;;;;;;;;5012192;28;20045;-65
2024/04/05 12:10:42;;;;;;;2.10;0.80;;;;;;;;;;5009735;28;20416;-64
2024/04/05 12:13:09;;;;;;;1.35;0.57;;;;;;;;;;5009684;28;20489;-64
2024/04/05 12:15:38;;;;;;;1.42;0.70;;;;;;;;;;5011946;28;20046;-64
2024/04/05 12:18:05;;;;;;;2.47;0.60;;;;;;;;;;5008170;28;20358;-63
2024/04/05 12:20:31;;;;;;;3.70;0.65;;;;;;;;;;5008892;28;20056;-64
2024/04/05 12:22:57;;;;;;;1.17;0.68;;;;;;;;;;5008161;28;20050;-63
2024/04/05 12:25:24;;;;;;;1.50;0.60;;;;;;;;;;5009814;28;20057;-63
2024/04/05 12:27:52;;;;;;;2.85;0.75;;;;;;;;;;5011366;28;20048;-65
2024/04/05 12:30:19;;;;;;;2.47;0.90;;;;;;;;;;5011842;28;20061;-64
2024/04/05 12:32:46;;;;;;;3.17;0.80;;;;;;;;;;5008263;28;20058;-65
2024/04/05 12:35:12;;;;;;;2.33;0.80;;;;;;;;;;4991333;28;20033;-65
2024/04/05 12:37:38;;;;;;;1.67;0.80;;;;;;;;;;5012883;28;20029;-64
2024/04/05 12:40:15;;;;;;;4.40;0.70;;;;;;;;;;5007932;28;20054;-65
2024/04/05 12:42:41;;;;;;;2.53;0.60;;;;;;;;;;5012545;28;20030;-64
2024/04/05 12:45:08;;;;;;;2.17;0.80;;;;;;;;;;5017191;28;20045;-65
2024/04/05 12:47:37;;;;;;;1.92;0.80;;;;;;;;;;5012324;28;20049;-66
2024/04/05 12:50:04;;;;;;;5.05;0.90;;;;;;;;;;5011756;28;20409;-65
2024/04/05 12:52:30;;;;;;;4.53;0.90;;;;;;;;;;5011650;28;20416;-64
2024/04/05 12:54:57;;;;;;;1.42;0.75;;;;;;;;;;5013895;28;20049;-65
2024/04/05 12:57:25;;;;;;;2.13;0.70;;;;;;;;;;5014475;28;20065;-64
2024/04/05 12:59:51;;;;;;;1.40;0.65;;;;;;;;;;5013866;28;20647;-63
2024/04/05 13:02:21;;;;;;;1.33;0.70;;;;;;;;;;5006831;28;20050;-63
2024/04/05 13:04:51;;;;;;;2.20;0.60;;;;;;;;;;5016665;28;20048;-64
2024/04/05 13:07:18;;;;;;;3.10;1.00;;;;;;;;;;5009339;28;20051;-64
2024/04/05 13:09:45;;;;;;;2.97;0.82;;;;;;;;;;5013236;28;20040;-64
2024/04/05 13:12:11;;;;;;;3.03;0.90;;;;;;;;;;5013450;28;20034;-63
2024/04/05 13:14:37;;;;;;;2.22;1.00;;;;;;;;;;5011205;28;20052;-64
2024/04/05 13:17:04;;;;;;;5.20;1.10;;;;;;;;;;5008757;28;20053;-65
2024/04/05 13:19:30;;;;;;;3.53;0.93;;;;;;;;;;5010153;28;20026;-63
2024/04/05 13:21:56;;;;;;;5.15;1.13;;;;;;;;;;5010716;28;20042;-63
2024/04/05 13:24:23;;;;;;;3.13;1.10;;;;;;;;;;5011595;28;20065;-64
2024/04/05 13:26:49;;;;;;;2.30;1.00;;;;;;;;;;5012198;28;20053;-64
2024/04/05 13:29:15;;;;;;;4.65;1.10;;;;;;;;;;5011371;28;20073;-63
2024/04/05 13:31:41;;;;;;;2.83;1.00;;;;;;;;;;5009054;28;20050;-64
2024/04/05 13:34:09;;;;;;;2.20;1.02;;;;;;;;;;5013878;28;20037;-64
2024/04/05 13:36:37;;;;;;;5.47;1.13;;;;;;;;;;5011087;28;20057;-64
2024/04/05 13:39:09;;;;;;;1.90;1.20;;;;;;;;;;5010610;28;20048;-64
2024/04/05 13:41:39;;;;;;;4.38;1.10;;;;;;;;;;5010016;28;20049;-64
2024/04/05 13:44:05;;;;;;;1.88;1.02;;;;;;;;;;5009074;28;20037;-64
2024/04/05 13:46:31;;;;;;;3.65;0.80;;;;;;;;;;5009201;28;20046;-63
2024/04/05 13:48:57;;;;;;;1.85;0.80;;;;;;;;;;5011134;28;20038;-63
2024/04/05 13:51:27;;;;;;;1.70;0.80;;;;;;;;;;5009508;28;20033;-63
2024/04/05 13:53:54;;;;;;;3.30;1.00;;;;;;;;;;5008367;28;20049;-65
2024/04/05 13:56:21;;;;;;;3.13;1.00;;;;;;;;;;5011170;28;20049;-64
2024/04/05 13:58:49;;;;;;;2.28;1.25;;;;;;;;;;5010222;28;20038;-63
2024/04/05 14:01:15;;;;;;;2.78;1.23;;;;;;;;;;5011788;28;20034;-66
2024/04/05 14:03:41;;;;;;;3.92;1.08;;;;;;;;;;5005223;28;20033;-67
2024/04/05 14:06:08;;;;;;;4.32;1.00;;;;;;;;;;5010129;28;20038;-67
2024/04/05 14:08:36;;;;;;;2.95;1.00;;;;;;;;;;5011859;28;20060;-67
2024/04/05 14:11:04;;;;;;;1.73;1.17;;;;;;;;;;5008279;28;20421;-67
2024/04/05 14:13:30;;;;;;;4.03;1.08;;;;;;;;;;5009641;28;20035;-68
2024/04/05 14:16:00;;;;;;;1.13;0.80;;;;;;;;;;5006562;28;20054;-67
2024/04/05 14:18:27;;;;;;;3.63;1.35;;;;;;;;;;5009632;28;20053;-67
2024/04/05 14:20:56;;;;;;;3.47;1.08;;;;;;;;;;5006734;28;20164;-67
2024/04/05 14:23:23;;;;;;;2.10;1.23;;;;;;;;;;5008474;28;20034;-66
2024/04/05 14:25:57;;;;;;;3.97;1.55;;;;;;;;;;5011176;28;20049;-67
2024/04/05 14:28:24;;;;;;;2.88;1.15;;;;;;;;;;5009435;28;20050;-67
2024/04/05 14:30:55;;;;;;;4.65;1.20;;;;;;;;;;5008617;28;20049;-68
2024/04/05 14:33:22;;;;;;;2.90;1.08;;;;;;;;;;5010340;28;20533;-69
2024/04/05 14:36:07;;;;;;;3.20;1.45;;;;;;;;;;5010255;28;20049;-68
2024/04/05 14:38:33;;;;;;;3.58;1.48;;;;;;;;;;5022133;28;20500;-68
2024/04/05 14:41:10;;;;;;;2.53;1.30;;;;;;;;;;5012086;28;20046;-67
2024/04/05 14:43:41;;;;;;;3.50;1.50;;;;;;;;;;5011648;28;20780;-69
2024/04/05 14:46:07;;;;;;;5.07;1.45;;;;;;;;;;5010134;28;20038;-68